createdAt,value
2017-03-15T00:00:58.424Z,0
2017-03-15T00:02:08.719Z,0
2017-03-15T00:03:18.988Z,0
2017-03-15T00:04:29.253Z,0
2017-03-15T00:05:41.520Z,0
2017-03-15T00:06:51.802Z,0
2017-03-15T00:08:01.740Z,0
2017-03-15T00:09:11.989Z,0
2017-03-15T00:10:22.245Z,0
2017-03-15T00:11:32.897Z,0
2017-03-15T00:12:42.841Z,0
2017-03-15T00:13:52.477Z,0
2017-03-15T00:15:02.421Z,0
2017-03-15T00:16:12.680Z,0
2017-03-15T00:17:22.619Z,0
2017-03-15T00:18:32.880Z,0
2017-03-15T00:19:43.163Z,0
2017-03-15T00:20:53.426Z,0
2017-03-15T00:22:03.689Z,0
2017-03-15T00:23:13.888Z,0
2017-03-15T00:24:24.150Z,0
2017-03-15T00:25:34.411Z,0
2017-03-15T00:26:43.730Z,0
2017-03-15T00:27:53.684Z,0
2017-03-15T00:29:03.952Z,0
2017-03-15T00:30:13.588Z,0
2017-03-15T00:31:23.865Z,0
2017-03-15T00:32:33.811Z,0
2017-03-15T00:33:43.759Z,0
2017-03-15T00:34:54.019Z,0
2017-03-15T00:36:04.300Z,0
2017-03-15T00:37:14.243Z,0
2017-03-15T00:38:24.500Z,0
2017-03-15T00:39:34.445Z,0
2017-03-15T00:40:44.701Z,0
2017-03-15T00:41:54.677Z,0
2017-03-15T00:43:04.941Z,0
2017-03-15T00:44:15.204Z,0
2017-03-15T00:45:25.183Z,0
2017-03-15T00:46:35.131Z,0
2017-03-15T00:47:45.078Z,0
2017-03-15T00:48:54.715Z,0
2017-03-15T00:50:04.977Z,0
2017-03-15T00:51:15.244Z,0
2017-03-15T00:52:25.199Z,0
2017-03-15T00:53:35.466Z,0
2017-03-15T00:54:45.729Z,0
2017-03-15T00:55:55.991Z,0
2017-03-15T00:57:06.255Z,0
2017-03-15T00:58:18.612Z,0
2017-03-15T00:59:28.252Z,0
2017-03-15T01:00:38.523Z,0
2017-03-15T01:01:48.778Z,0
2017-03-15T01:02:58.726Z,0
2017-03-15T01:04:08.679Z,0
2017-03-15T01:05:18.940Z,0
2017-03-15T01:06:28.886Z,0
2017-03-15T01:07:38.516Z,0
2017-03-15T01:08:48.802Z,0
2017-03-15T01:09:58.440Z,0
2017-03-15T01:11:08.389Z,0
2017-03-15T01:12:18.649Z,0
2017-03-15T01:13:28.594Z,0
2017-03-15T01:14:38.862Z,0
2017-03-15T01:15:49.128Z,0
2017-03-15T01:16:59.389Z,0
2017-03-15T01:18:09.047Z,0
2017-03-15T01:19:18.995Z,0
2017-03-15T01:20:29.272Z,0
2017-03-15T01:21:38.596Z,0
2017-03-15T01:22:48.856Z,0
2017-03-15T01:23:58.491Z,0
2017-03-15T01:25:08.749Z,0
2017-03-15T01:26:18.998Z,0
2017-03-15T01:27:31.262Z,0
2017-03-15T01:28:41.528Z,0
2017-03-15T01:29:51.794Z,0
2017-03-15T01:31:02.061Z,0
2017-03-15T01:32:12.327Z,0
2017-03-15T01:33:22.585Z,0
2017-03-15T01:34:32.841Z,0
2017-03-15T01:35:43.102Z,0
2017-03-15T01:36:53.361Z,0
2017-03-15T01:38:03.322Z,0
2017-03-15T01:39:13.271Z,0
2017-03-15T01:40:23.539Z,0
2017-03-15T01:41:33.490Z,0
2017-03-15T01:42:43.755Z,0
2017-03-15T01:43:54.018Z,0
2017-03-15T01:45:03.970Z,0
2017-03-15T01:46:14.230Z,0
2017-03-15T01:47:23.881Z,0
2017-03-15T01:48:34.146Z,0
2017-03-15T01:49:44.091Z,0
2017-03-15T01:50:54.038Z,0
2017-03-15T01:52:04.304Z,0
2017-03-15T01:53:14.559Z,0
2017-03-15T01:54:24.507Z,0
2017-03-15T01:55:34.768Z,0
2017-03-15T01:56:44.721Z,0
2017-03-15T01:57:54.986Z,0
2017-03-15T01:59:05.255Z,0
2017-03-15T02:00:15.518Z,0
2017-03-15T02:01:25.780Z,0
2017-03-15T02:02:36.051Z,0
2017-03-15T02:03:46.311Z,0
2017-03-15T02:04:56.578Z,0
2017-03-15T02:06:06.840Z,0
2017-03-15T02:07:17.101Z,0
2017-03-15T02:08:27.359Z,0
2017-03-15T02:09:37.622Z,0
2017-03-15T02:10:47.266Z,0
2017-03-15T02:11:57.210Z,0
2017-03-15T02:13:07.472Z,0
2017-03-15T02:14:17.732Z,0
2017-03-15T02:15:27.995Z,0
2017-03-15T02:16:38.265Z,0
2017-03-15T02:17:48.213Z,0
2017-03-15T02:18:58.154Z,0
2017-03-15T02:20:08.104Z,0
2017-03-15T02:21:18.362Z,0
2017-03-15T02:22:28.620Z,0
2017-03-15T02:23:38.906Z,0
2017-03-15T02:24:48.855Z,0
2017-03-15T02:25:59.119Z,0
2017-03-15T02:27:09.380Z,0
2017-03-15T02:28:19.326Z,0
2017-03-15T02:29:29.600Z,0
2017-03-15T02:30:39.856Z,0
2017-03-15T02:31:49.801Z,0
2017-03-15T02:32:59.744Z,0
2017-03-15T02:34:09.688Z,0
2017-03-15T02:35:19.941Z,0
2017-03-15T02:36:30.200Z,0
2017-03-15T02:37:40.151Z,0
2017-03-15T02:38:50.423Z,0
2017-03-15T02:40:00.375Z,0
2017-03-15T02:41:10.635Z,0
2017-03-15T02:42:20.899Z,0
2017-03-15T02:43:31.170Z,0
2017-03-15T02:44:41.433Z,0
2017-03-15T02:45:51.391Z,0
2017-03-15T02:47:01.354Z,0
2017-03-15T02:48:11.617Z,0
2017-03-15T02:49:21.575Z,0
2017-03-15T02:50:31.523Z,0
2017-03-15T02:51:41.476Z,0
2017-03-15T02:52:51.745Z,0
2017-03-15T02:54:02.013Z,0
2017-03-15T02:55:12.280Z,0
2017-03-15T02:56:22.541Z,0
2017-03-15T02:57:32.484Z,0
2017-03-15T02:58:42.747Z,0
2017-03-15T02:59:52.696Z,0
2017-03-15T03:01:02.641Z,0
2017-03-15T03:02:12.265Z,0
2017-03-15T03:03:22.208Z,0
2017-03-15T03:04:32.156Z,0
2017-03-15T03:05:42.424Z,0
2017-03-15T03:06:52.689Z,0
2017-03-15T03:08:02.967Z,0
2017-03-15T03:09:13.231Z,0
2017-03-15T03:10:23.492Z,0
2017-03-15T03:11:33.750Z,0
2017-03-15T03:12:43.395Z,0
2017-03-15T03:13:53.348Z,0
2017-03-15T03:15:03.619Z,0
2017-03-15T03:16:13.890Z,0
2017-03-15T03:17:23.858Z,0
2017-03-15T03:18:34.118Z,0
2017-03-15T03:19:44.070Z,0
2017-03-15T03:20:54.330Z,0
2017-03-15T03:22:04.587Z,0
2017-03-15T03:23:14.533Z,0
2017-03-15T03:24:24.481Z,0
2017-03-15T03:25:34.749Z,0
2017-03-15T03:26:44.381Z,0
2017-03-15T03:27:54.638Z,0
2017-03-15T03:29:04.901Z,0
2017-03-15T03:30:15.179Z,0
2017-03-15T03:31:25.441Z,0
2017-03-15T03:32:35.701Z,0
2017-03-15T03:33:45.963Z,0
2017-03-15T03:34:55.909Z,0
2017-03-15T03:36:06.161Z,0
2017-03-15T03:37:15.791Z,0
2017-03-15T03:38:26.049Z,0
2017-03-15T03:39:36.307Z,0
2017-03-15T03:40:46.565Z,0
2017-03-15T03:41:56.833Z,0
2017-03-15T03:43:07.109Z,0
2017-03-15T03:44:17.370Z,0
2017-03-15T03:45:27.635Z,0
2017-03-15T03:46:37.578Z,0
2017-03-15T03:47:47.846Z,0
2017-03-15T03:48:57.476Z,0
2017-03-15T03:50:07.431Z,0
2017-03-15T03:51:17.688Z,0
2017-03-15T03:52:27.950Z,0
2017-03-15T03:53:38.217Z,0
2017-03-15T03:54:48.486Z,0
2017-03-15T03:55:58.752Z,0
2017-03-15T03:57:08.388Z,0
2017-03-15T03:58:18.653Z,0
2017-03-15T03:59:28.604Z,0
2017-03-15T04:00:38.568Z,0
2017-03-15T04:01:48.829Z,0
2017-03-15T04:02:59.090Z,0
2017-03-15T04:04:09.350Z,0
2017-03-15T04:05:19.610Z,0
2017-03-15T04:06:29.243Z,0
2017-03-15T04:07:39.526Z,0
2017-03-15T04:08:49.794Z,0
2017-03-15T04:10:00.046Z,0
2017-03-15T04:11:10.300Z,0
2017-03-15T04:12:19.940Z,0
2017-03-15T04:13:30.200Z,0
2017-03-15T04:14:39.835Z,0
2017-03-15T04:15:49.471Z,0
2017-03-15T04:16:59.421Z,0
2017-03-15T04:18:09.373Z,0
2017-03-15T04:19:19.639Z,0
2017-03-15T04:20:29.900Z,0
2017-03-15T04:21:40.164Z,0
2017-03-15T04:22:50.425Z,0
2017-03-15T04:24:00.709Z,0
2017-03-15T04:25:10.977Z,0
2017-03-15T04:26:21.237Z,0
2017-03-15T04:27:31.504Z,0
2017-03-15T04:28:41.763Z,0
2017-03-15T04:29:51.707Z,0
2017-03-15T04:31:01.970Z,0
2017-03-15T04:32:12.232Z,0
2017-03-15T04:33:21.864Z,0
2017-03-15T04:34:31.815Z,0
2017-03-15T04:35:42.083Z,0
2017-03-15T04:36:52.346Z,0
2017-03-15T04:38:02.292Z,0
2017-03-15T04:39:12.555Z,0
2017-03-15T04:40:22.514Z,0
2017-03-15T04:41:32.779Z,0
2017-03-15T04:42:43.045Z,0
2017-03-15T04:43:52.997Z,0
2017-03-15T04:45:03.267Z,0
2017-03-15T04:46:13.542Z,0
2017-03-15T04:47:23.801Z,0
2017-03-15T04:48:34.062Z,0
2017-03-15T04:49:44.332Z,0
2017-03-15T04:50:54.591Z,0
2017-03-15T04:52:04.536Z,0
2017-03-15T04:53:14.808Z,0
2017-03-15T04:54:25.076Z,0
2017-03-15T04:55:35.022Z,0
2017-03-15T04:56:44.974Z,0
2017-03-15T04:57:54.932Z,0
2017-03-15T04:59:05.187Z,0
2017-03-15T05:00:15.133Z,0
2017-03-15T05:01:25.390Z,0
2017-03-15T05:02:35.655Z,0
2017-03-15T05:03:45.918Z,0
2017-03-15T05:04:56.185Z,0
2017-03-15T05:06:06.450Z,0
2017-03-15T05:07:16.727Z,0
2017-03-15T05:08:26.676Z,0
2017-03-15T05:09:36.939Z,0
2017-03-15T05:10:46.881Z,0
2017-03-15T05:11:57.140Z,0
2017-03-15T05:13:07.399Z,0
2017-03-15T05:14:17.662Z,0
2017-03-15T05:15:27.920Z,0
2017-03-15T05:16:38.191Z,0
2017-03-15T05:17:48.137Z,0
2017-03-15T05:18:57.773Z,0
2017-03-15T05:20:07.717Z,0
2017-03-15T05:21:17.974Z,0
2017-03-15T05:22:28.239Z,0
2017-03-15T05:23:38.507Z,5
2017-03-15T05:24:48.768Z,5
2017-03-15T05:25:58.712Z,5
2017-03-15T05:27:08.658Z,5
2017-03-15T05:28:18.922Z,5
2017-03-15T05:29:29.186Z,5
2017-03-15T05:30:38.825Z,5
2017-03-15T05:31:49.095Z,10
2017-03-15T05:32:59.048Z,10
2017-03-15T05:34:09.317Z,10
2017-03-15T05:35:19.579Z,10
2017-03-15T05:36:29.835Z,10
2017-03-15T05:37:39.783Z,15
2017-03-15T05:38:49.730Z,15
2017-03-15T05:39:59.985Z,15
2017-03-15T05:41:09.928Z,20
2017-03-15T05:42:20.186Z,20
2017-03-15T05:43:30.450Z,20
2017-03-15T05:44:40.393Z,20
2017-03-15T05:45:50.333Z,25
2017-03-15T05:47:00.297Z,25
2017-03-15T05:48:09.932Z,30
2017-03-15T05:49:20.197Z,30
2017-03-15T05:50:30.470Z,30
2017-03-15T05:51:40.425Z,35
2017-03-15T05:52:50.382Z,35
2017-03-15T05:54:00.326Z,35
2017-03-15T05:55:10.603Z,40
2017-03-15T05:56:20.550Z,40
2017-03-15T05:57:30.813Z,40
2017-03-15T05:58:40.757Z,45
2017-03-15T05:59:51.023Z,50
2017-03-15T06:01:01.286Z,55
2017-03-15T06:02:11.223Z,55
2017-03-15T06:03:21.484Z,60
2017-03-15T06:04:31.438Z,60
2017-03-15T06:05:41.702Z,60
2017-03-15T06:06:51.981Z,65
2017-03-15T06:08:02.242Z,65
2017-03-15T06:09:12.504Z,65
2017-03-15T06:10:22.454Z,65
2017-03-15T06:11:32.401Z,70
2017-03-15T06:12:42.665Z,70
2017-03-15T06:13:52.938Z,70
2017-03-15T06:15:02.885Z,75
2017-03-15T06:16:13.157Z,75
2017-03-15T06:17:23.111Z,75
2017-03-15T06:18:33.366Z,80
2017-03-15T06:19:43.626Z,80
2017-03-15T06:20:53.886Z,80
2017-03-15T06:22:03.844Z,85
2017-03-15T06:23:13.797Z,85
2017-03-15T06:24:23.747Z,90
2017-03-15T06:25:34.012Z,90
2017-03-15T06:26:44.275Z,90
2017-03-15T06:27:54.221Z,95
2017-03-15T06:29:03.870Z,95
2017-03-15T06:30:13.821Z,95
2017-03-15T06:31:24.077Z,100
2017-03-15T06:32:34.340Z,100
2017-03-15T06:33:44.284Z,100
2017-03-15T06:34:54.552Z,105
2017-03-15T06:36:04.825Z,105
2017-03-15T06:37:15.088Z,105
2017-03-15T06:38:25.040Z,110
2017-03-15T06:39:34.995Z,110
2017-03-15T06:40:44.626Z,110
2017-03-15T06:41:54.576Z,110
2017-03-15T06:43:04.842Z,115
2017-03-15T06:44:14.801Z,115
2017-03-15T06:45:24.428Z,115
2017-03-15T06:46:34.373Z,120
2017-03-15T06:47:44.638Z,120
2017-03-15T06:48:54.912Z,120
2017-03-15T06:50:04.869Z,120
2017-03-15T06:51:14.815Z,125
2017-03-15T06:52:24.766Z,125
2017-03-15T06:53:34.717Z,125
2017-03-15T06:54:44.977Z,130
2017-03-15T06:55:54.619Z,130
2017-03-15T06:57:04.564Z,130
2017-03-15T06:58:14.829Z,130
2017-03-15T06:59:25.095Z,135
2017-03-15T07:00:35.362Z,135
2017-03-15T07:01:44.991Z,135
2017-03-15T07:02:54.944Z,135
2017-03-15T07:04:04.900Z,140
2017-03-15T07:05:15.187Z,140
2017-03-15T07:06:25.133Z,140
2017-03-15T07:07:34.773Z,140
2017-03-15T07:08:45.040Z,145
2017-03-15T07:09:55.306Z,145
2017-03-15T07:11:05.257Z,145
2017-03-15T07:12:15.516Z,145
2017-03-15T07:13:25.774Z,150
2017-03-15T07:14:35.728Z,150
2017-03-15T07:15:45.991Z,150
2017-03-15T07:16:55.318Z,150
2017-03-15T07:18:05.268Z,150
2017-03-15T07:19:15.529Z,155
2017-03-15T07:20:25.789Z,155
2017-03-15T07:21:35.738Z,155
2017-03-15T07:22:45.376Z,155
2017-03-15T07:23:55.665Z,160
2017-03-15T07:25:05.295Z,160
2017-03-15T07:26:15.241Z,160
2017-03-15T07:27:25.195Z,160
2017-03-15T07:28:35.461Z,160
2017-03-15T07:29:45.734Z,165
2017-03-15T07:30:55.687Z,165
2017-03-15T07:32:05.635Z,165
2017-03-15T07:33:15.891Z,165
2017-03-15T07:34:25.841Z,165
2017-03-15T07:35:35.792Z,170
2017-03-15T07:36:46.059Z,170
2017-03-15T07:37:56.317Z,170
2017-03-15T07:39:05.963Z,175
2017-03-15T07:40:16.224Z,170
2017-03-15T07:41:26.488Z,170
2017-03-15T07:42:36.748Z,170
2017-03-15T07:43:46.704Z,170
2017-03-15T07:44:56.963Z,170
2017-03-15T07:46:07.230Z,170
2017-03-15T07:47:17.500Z,170
2017-03-15T07:48:27.769Z,175
2017-03-15T07:49:38.034Z,175
2017-03-15T07:50:48.304Z,175
2017-03-15T07:51:58.573Z,175
2017-03-15T07:53:08.840Z,175
2017-03-15T07:54:18.791Z,180
2017-03-15T07:55:28.747Z,180
2017-03-15T07:56:39.059Z,180
2017-03-15T07:57:49.320Z,180
2017-03-15T07:58:59.273Z,180
2017-03-15T08:00:09.565Z,180
2017-03-15T08:01:19.829Z,185
2017-03-15T08:02:29.784Z,185
2017-03-15T08:03:40.047Z,185
2017-03-15T08:04:50.313Z,185
2017-03-15T08:06:00.583Z,185
2017-03-15T08:07:10.862Z,190
2017-03-15T08:08:20.880Z,190
2017-03-15T08:09:31.141Z,190
2017-03-15T08:10:41.501Z,190
2017-03-15T08:11:51.460Z,190
2017-03-15T08:13:01.725Z,195
2017-03-15T08:14:11.985Z,195
2017-03-15T08:15:22.255Z,195
2017-03-15T08:16:32.519Z,195
2017-03-15T08:17:42.792Z,195
2017-03-15T08:18:53.049Z,210
2017-03-15T08:20:03.312Z,210
2017-03-15T08:21:13.273Z,205
2017-03-15T08:22:22.905Z,200
2017-03-15T08:23:32.852Z,205
2017-03-15T08:24:43.115Z,205
2017-03-15T08:25:52.749Z,205
2017-03-15T08:27:02.700Z,205
2017-03-15T08:28:12.652Z,210
2017-03-15T08:29:22.918Z,205
2017-03-15T08:30:32.875Z,210
2017-03-15T08:31:43.130Z,210
2017-03-15T08:32:53.076Z,210
2017-03-15T08:34:03.338Z,210
2017-03-15T08:35:12.966Z,210
2017-03-15T08:36:23.220Z,215
2017-03-15T08:37:33.169Z,215
2017-03-15T08:38:43.117Z,215
2017-03-15T08:39:53.385Z,220
2017-03-15T08:41:03.334Z,220
2017-03-15T08:42:12.657Z,220
2017-03-15T08:43:22.602Z,220
2017-03-15T08:44:32.554Z,220
2017-03-15T08:45:42.845Z,220
2017-03-15T08:46:52.473Z,225
2017-03-15T08:48:02.735Z,225
2017-03-15T08:49:12.994Z,225
2017-03-15T08:50:23.321Z,225
2017-03-15T08:51:33.584Z,225
2017-03-15T08:52:43.536Z,225
2017-03-15T08:53:53.489Z,225
2017-03-15T08:55:03.438Z,230
2017-03-15T08:56:13.105Z,230
2017-03-15T08:57:23.367Z,230
2017-03-15T08:58:33.633Z,230
2017-03-15T08:59:43.586Z,230
2017-03-15T09:00:53.844Z,230
2017-03-15T09:02:04.111Z,230
2017-03-15T09:03:14.064Z,235
2017-03-15T09:04:24.010Z,235
2017-03-15T09:05:33.652Z,235
2017-03-15T09:06:43.597Z,235
2017-03-15T09:07:53.859Z,235
2017-03-15T09:09:04.156Z,235
2017-03-15T09:10:14.197Z,235
2017-03-15T09:11:24.459Z,235
2017-03-15T09:12:35.018Z,235
2017-03-15T09:13:44.968Z,240
2017-03-15T09:14:55.180Z,240
2017-03-15T09:16:05.440Z,240
2017-03-15T09:17:15.700Z,240
2017-03-15T09:18:25.962Z,240
2017-03-15T09:19:35.910Z,240
2017-03-15T09:20:45.545Z,240
2017-03-15T09:21:55.804Z,240
2017-03-15T09:23:06.076Z,240
2017-03-15T09:24:16.349Z,240
2017-03-15T09:25:26.293Z,245
2017-03-15T09:26:36.265Z,245
2017-03-15T09:27:46.528Z,245
2017-03-15T09:28:56.480Z,245
2017-03-15T09:30:06.113Z,245
2017-03-15T09:31:16.383Z,245
2017-03-15T09:32:26.349Z,245
2017-03-15T09:33:36.296Z,245
2017-03-15T09:34:46.560Z,250
2017-03-15T09:35:56.540Z,245
2017-03-15T09:37:05.864Z,245
2017-03-15T09:38:16.128Z,250
2017-03-15T09:39:26.403Z,250
2017-03-15T09:40:36.037Z,250
2017-03-15T09:41:45.669Z,250
2017-03-15T09:42:55.616Z,250
2017-03-15T09:44:05.564Z,250
2017-03-15T09:45:15.518Z,250
2017-03-15T09:46:25.780Z,250
2017-03-15T09:47:36.045Z,250
2017-03-15T09:48:45.685Z,250
2017-03-15T09:49:55.630Z,250
2017-03-15T09:51:05.609Z,255
2017-03-15T09:52:15.565Z,255
2017-03-15T09:53:25.828Z,255
2017-03-15T09:54:36.086Z,255
2017-03-15T09:55:46.031Z,255
2017-03-15T09:56:55.346Z,255
2017-03-15T09:58:05.603Z,255
2017-03-15T09:59:15.863Z,255
2017-03-15T10:00:26.151Z,255
2017-03-15T10:01:36.415Z,255
2017-03-15T10:02:46.049Z,255
2017-03-15T10:03:55.996Z,255
2017-03-15T10:05:05.941Z,260
2017-03-15T10:06:16.209Z,260
2017-03-15T10:07:26.467Z,260
2017-03-15T10:08:36.442Z,260
2017-03-15T10:09:46.079Z,260
2017-03-15T10:10:56.331Z,260
2017-03-15T10:12:05.972Z,260
2017-03-15T10:13:18.237Z,260
2017-03-15T10:14:28.498Z,260
2017-03-15T10:15:38.440Z,260
2017-03-15T10:16:48.708Z,260
2017-03-15T10:17:58.648Z,265
2017-03-15T10:19:08.630Z,265
2017-03-15T10:20:18.581Z,265
2017-03-15T10:21:28.840Z,265
2017-03-15T10:22:38.793Z,265
2017-03-15T10:23:48.736Z,265
2017-03-15T10:24:58.368Z,265
2017-03-15T10:26:08.312Z,265
2017-03-15T10:27:18.564Z,265
2017-03-15T10:28:28.515Z,265
2017-03-15T10:29:38.467Z,265
2017-03-15T10:30:48.419Z,265
2017-03-15T10:31:58.674Z,270
2017-03-15T10:33:08.924Z,270
2017-03-15T10:34:19.180Z,270
2017-03-15T10:35:29.430Z,270
2017-03-15T10:36:39.386Z,270
2017-03-15T10:37:49.642Z,270
2017-03-15T10:38:58.953Z,270
2017-03-15T10:40:08.901Z,270
2017-03-15T10:41:18.846Z,270
2017-03-15T10:42:29.100Z,270
2017-03-15T10:43:39.044Z,270
2017-03-15T10:44:49.299Z,270
2017-03-15T10:45:59.248Z,270
2017-03-15T10:47:08.573Z,270
2017-03-15T10:48:18.834Z,270
2017-03-15T10:49:29.097Z,275
2017-03-15T10:50:39.348Z,275
2017-03-15T10:51:48.978Z,275
2017-03-15T10:52:58.937Z,275
2017-03-15T10:54:08.891Z,275
2017-03-15T10:55:18.835Z,275
2017-03-15T10:56:29.128Z,275
2017-03-15T10:57:39.412Z,275
2017-03-15T10:58:49.684Z,275
2017-03-15T11:00:01.415Z,275
2017-03-15T11:01:10.740Z,280
2017-03-15T11:02:20.682Z,280
2017-03-15T11:03:30.331Z,285
2017-03-15T11:04:40.274Z,280
2017-03-15T11:05:50.527Z,280
2017-03-15T11:07:00.478Z,280
2017-03-15T11:08:10.426Z,285
2017-03-15T11:09:20.685Z,285
2017-03-15T11:10:30.635Z,290
2017-03-15T11:11:40.581Z,355
2017-03-15T11:12:50.545Z,470
2017-03-15T11:14:00.504Z,520
2017-03-15T11:15:10.128Z,560
2017-03-15T11:16:20.383Z,615
2017-03-15T11:17:30.332Z,625
2017-03-15T11:18:40.277Z,620
2017-03-15T11:19:49.909Z,615
2017-03-15T11:20:59.540Z,615
2017-03-15T11:22:08.860Z,620
2017-03-15T11:23:19.123Z,620
2017-03-15T11:24:29.388Z,690
2017-03-15T11:25:39.337Z,865
2017-03-15T11:26:49.289Z,830
2017-03-15T11:27:59.553Z,755
2017-03-15T11:29:09.815Z,720
2017-03-15T11:30:20.078Z,705
2017-03-15T11:31:30.343Z,715
2017-03-15T11:32:40.610Z,715
2017-03-15T11:33:50.561Z,710
2017-03-15T11:35:00.194Z,695
2017-03-15T11:36:09.856Z,690
2017-03-15T11:37:20.139Z,670
2017-03-15T11:38:30.411Z,665
2017-03-15T11:39:40.685Z,665
2017-03-15T11:40:50.949Z,660
2017-03-15T11:42:00.904Z,660
2017-03-15T11:43:11.183Z,665
2017-03-15T11:44:21.448Z,685
2017-03-15T11:45:31.712Z,680
2017-03-15T11:46:41.670Z,685
2017-03-15T11:47:51.622Z,695
2017-03-15T11:49:01.893Z,690
2017-03-15T11:50:11.845Z,690
2017-03-15T11:51:21.793Z,705
2017-03-15T11:52:32.054Z,710
2017-03-15T11:53:42.323Z,710
2017-03-15T11:54:52.587Z,715
2017-03-15T11:56:02.539Z,720
2017-03-15T11:57:12.494Z,715
2017-03-15T11:58:22.446Z,725
2017-03-15T11:59:32.738Z,750
2017-03-15T12:00:43.005Z,745
2017-03-15T12:01:52.976Z,750
2017-03-15T12:03:02.930Z,755
2017-03-15T12:04:12.259Z,780
2017-03-15T12:05:22.219Z,765
2017-03-15T12:06:32.181Z,775
2017-03-15T12:07:41.825Z,310
2017-03-15T12:08:52.088Z,800
2017-03-15T12:10:01.729Z,615
2017-03-15T12:11:11.681Z,825
2017-03-15T12:12:21.942Z,630
2017-03-15T12:13:32.234Z,660
2017-03-15T12:14:42.187Z,830
2017-03-15T12:15:52.139Z,670
2017-03-15T12:17:01.779Z,465
2017-03-15T12:18:11.415Z,825
2017-03-15T12:19:21.682Z,815
2017-03-15T12:20:31.634Z,750
2017-03-15T12:21:41.896Z,870
2017-03-15T12:22:51.846Z,565
2017-03-15T12:24:01.803Z,860
2017-03-15T12:25:11.460Z,870
2017-03-15T12:26:21.733Z,290
2017-03-15T12:27:31.999Z,855
2017-03-15T12:28:41.958Z,875
2017-03-15T12:29:51.910Z,370
2017-03-15T12:31:01.858Z,970
2017-03-15T12:32:11.187Z,640
2017-03-15T12:33:20.829Z,1015
2017-03-15T12:34:31.093Z,1055
2017-03-15T12:35:41.359Z,1125
2017-03-15T12:36:51.311Z,1200
2017-03-15T12:38:01.256Z,1360
2017-03-15T12:39:11.519Z,1505
2017-03-15T12:40:21.153Z,1560
2017-03-15T12:41:31.117Z,3345
2017-03-15T12:42:41.381Z,2620
2017-03-15T12:43:51.651Z,2410
2017-03-15T12:45:01.603Z,2415
2017-03-15T12:46:11.556Z,720
2017-03-15T12:47:21.827Z,2370
2017-03-15T12:48:31.784Z,2475
2017-03-15T12:49:41.428Z,2285
2017-03-15T12:50:51.387Z,2165
2017-03-15T12:52:01.339Z,2155
2017-03-15T12:53:11.609Z,2255
2017-03-15T12:54:21.881Z,2205
2017-03-15T12:55:32.149Z,2110
2017-03-15T12:56:42.419Z,2150
2017-03-15T12:57:52.696Z,2235
2017-03-15T12:59:02.662Z,2235
2017-03-15T13:00:12.615Z,2275
2017-03-15T13:01:22.261Z,2420
2017-03-15T13:02:31.902Z,2425
2017-03-15T13:03:41.553Z,2400
2017-03-15T13:04:51.826Z,2390
2017-03-15T13:06:01.776Z,390
2017-03-15T13:07:11.730Z,840
2017-03-15T13:08:21.683Z,2325
2017-03-15T13:09:31.954Z,1160
2017-03-15T13:10:41.640Z,2410
2017-03-15T13:11:51.900Z,1845
2017-03-15T13:13:01.854Z,2210
2017-03-15T13:14:12.119Z,1820
2017-03-15T13:15:22.073Z,1515
2017-03-15T13:16:32.336Z,1230
2017-03-15T13:17:41.673Z,500
2017-03-15T13:18:51.954Z,805
2017-03-15T13:20:01.956Z,1300
2017-03-15T13:21:11.286Z,1290
2017-03-15T13:22:21.553Z,280
2017-03-15T13:23:31.510Z,855
2017-03-15T13:24:41.143Z,535
2017-03-15T13:25:51.405Z,535
2017-03-15T13:27:01.349Z,385
2017-03-15T13:28:11.607Z,615
2017-03-15T13:29:21.553Z,525
2017-03-15T13:30:31.821Z,625
2017-03-15T13:31:42.085Z,730
2017-03-15T13:32:52.038Z,640
2017-03-15T13:34:01.990Z,790
2017-03-15T13:35:11.629Z,595
2017-03-15T13:36:21.272Z,560
2017-03-15T13:37:31.233Z,655
2017-03-15T13:38:41.499Z,580
2017-03-15T13:39:51.452Z,735
2017-03-15T13:41:01.401Z,675
2017-03-15T13:42:11.345Z,565
2017-03-15T13:43:21.610Z,680
2017-03-15T13:44:31.583Z,655
2017-03-15T13:45:41.856Z,465
2017-03-15T13:46:52.115Z,535
2017-03-15T13:48:02.377Z,795
2017-03-15T13:49:12.636Z,960
2017-03-15T13:50:22.583Z,905
2017-03-15T13:51:32.851Z,685
2017-03-15T13:52:42.810Z,690
2017-03-15T13:53:52.445Z,460
2017-03-15T13:55:02.647Z,520
2017-03-15T13:56:12.279Z,530
2017-03-15T13:57:22.222Z,620
2017-03-15T13:58:32.174Z,390
2017-03-15T13:59:42.118Z,685
2017-03-15T14:00:52.427Z,960
2017-03-15T14:02:02.389Z,915
2017-03-15T14:03:12.332Z,1235
2017-03-15T14:04:22.592Z,1200
2017-03-15T14:05:32.539Z,1030
2017-03-15T14:06:42.171Z,1015
2017-03-15T14:07:52.119Z,1035
2017-03-15T14:09:02.072Z,415
2017-03-15T14:10:12.018Z,385
2017-03-15T14:11:22.273Z,610
2017-03-15T14:12:32.535Z,785
2017-03-15T14:13:42.485Z,545
2017-03-15T14:14:52.746Z,730
2017-03-15T14:16:02.378Z,870
2017-03-15T14:17:12.641Z,960
2017-03-15T14:18:22.908Z,870
2017-03-15T14:19:32.859Z,800
2017-03-15T14:20:42.807Z,785
2017-03-15T14:21:53.083Z,710
2017-03-15T14:23:03.029Z,765
2017-03-15T14:24:12.972Z,745
2017-03-15T14:25:23.232Z,805
2017-03-15T14:26:33.181Z,925
2017-03-15T14:27:43.443Z,610
2017-03-15T14:28:53.703Z,610
2017-03-15T14:30:03.966Z,785
2017-03-15T14:31:14.230Z,715
2017-03-15T14:32:24.488Z,710
2017-03-15T14:33:34.748Z,595
2017-03-15T14:34:44.694Z,690
2017-03-15T14:35:54.638Z,1050
2017-03-15T14:37:04.898Z,1105
2017-03-15T14:38:14.842Z,1320
2017-03-15T14:39:24.788Z,1285
2017-03-15T14:40:34.732Z,1255
2017-03-15T14:41:44.675Z,1430
2017-03-15T14:42:54.623Z,1320
2017-03-15T14:44:04.256Z,1340
2017-03-15T14:45:14.201Z,1575
2017-03-15T14:46:24.464Z,1795
2017-03-15T14:47:34.414Z,1780
2017-03-15T14:48:44.365Z,1780
2017-03-15T14:49:54.622Z,1690
2017-03-15T14:51:04.569Z,1730
2017-03-15T14:52:14.514Z,1720
2017-03-15T14:53:24.778Z,1735
2017-03-15T14:54:34.725Z,1745
2017-03-15T14:55:44.354Z,1665
2017-03-15T14:56:54.303Z,1460
2017-03-15T14:58:04.255Z,1380
2017-03-15T14:59:14.212Z,1575
2017-03-15T15:00:24.477Z,1570
2017-03-15T15:01:34.431Z,1630
2017-03-15T15:02:44.697Z,1550
2017-03-15T15:03:54.647Z,1060
2017-03-15T15:05:04.599Z,740
2017-03-15T15:06:14.864Z,1280
2017-03-15T15:07:25.129Z,1600
2017-03-15T15:08:35.391Z,1520
2017-03-15T15:09:45.652Z,1525
2017-03-15T15:10:55.922Z,1550
2017-03-15T15:12:05.876Z,1560
2017-03-15T15:13:16.141Z,1520
2017-03-15T15:14:26.086Z,1510
2017-03-15T15:15:36.034Z,1485
2017-03-15T15:16:45.352Z,1500
2017-03-15T15:17:55.297Z,1515
2017-03-15T15:19:05.246Z,1465
2017-03-15T15:20:15.208Z,1455
2017-03-15T15:21:25.161Z,1450
2017-03-15T15:22:35.423Z,1450
2017-03-15T15:23:45.369Z,1445
2017-03-15T15:24:55.630Z,1420
2017-03-15T15:26:05.896Z,1405
2017-03-15T15:27:16.162Z,1385
2017-03-15T15:28:26.427Z,1365
2017-03-15T15:29:36.693Z,1300
2017-03-15T15:30:46.331Z,1305
2017-03-15T15:31:55.974Z,1320
2017-03-15T15:33:06.236Z,1285
2017-03-15T15:34:15.559Z,1295
2017-03-15T15:35:25.830Z,1300
2017-03-15T15:36:36.098Z,1275
2017-03-15T15:37:45.733Z,1260
2017-03-15T15:38:56.018Z,665
2017-03-15T15:40:05.660Z,1235
2017-03-15T15:41:15.923Z,1180
2017-03-15T15:42:25.880Z,1130
2017-03-15T15:43:36.148Z,865
2017-03-15T15:44:46.408Z,760
2017-03-15T15:45:56.674Z,730
2017-03-15T15:47:06.938Z,710
2017-03-15T15:48:17.200Z,670
2017-03-15T15:49:27.465Z,575
2017-03-15T15:50:37.727Z,515
2017-03-15T15:51:47.995Z,500
2017-03-15T15:52:58.258Z,435
2017-03-15T15:54:07.891Z,390
2017-03-15T15:55:17.835Z,400
2017-03-15T15:56:27.504Z,355
2017-03-15T15:57:37.764Z,305
2017-03-15T15:58:47.393Z,315
2017-03-15T15:59:57.349Z,160
2017-03-15T16:01:06.985Z,155
2017-03-15T16:02:16.618Z,150
2017-03-15T16:03:26.977Z,145
2017-03-15T16:04:37.268Z,140
2017-03-15T16:05:46.904Z,145
2017-03-15T16:06:57.166Z,145
2017-03-15T16:08:07.429Z,155
2017-03-15T16:09:17.686Z,170
2017-03-15T16:10:27.631Z,200
2017-03-15T16:11:37.587Z,195
2017-03-15T16:12:46.900Z,215
2017-03-15T16:13:57.157Z,235
2017-03-15T16:15:06.790Z,270
2017-03-15T16:16:16.761Z,330
2017-03-15T16:17:27.020Z,355
2017-03-15T16:18:37.275Z,330
2017-03-15T16:19:46.909Z,340
2017-03-15T16:20:56.855Z,355
2017-03-15T16:22:06.805Z,355
2017-03-15T16:23:17.068Z,350
2017-03-15T16:24:27.332Z,375
2017-03-15T16:25:37.281Z,375